x

Georgian Bay (45137) Wave Buoy

1:00pm - Mon 22nd Sep 2014 All times are CDT. -5 hours from GMT.

  • Sig Wave height 2.0ft
  • Peak Period 4s
  • Wind
    13mph, 18mph gusts
  • Sea Temp 56°f
  • Air Temp 49°f
  • Sea Pressure 1018.8mb
  • Georgian Bay
  • Georgian Bay

More Historic Weather Station data

Upgrade to MSW Pro to gain access to the past 30 days of data for over 8000 Wavebouys and Weather Stations around the globe.

Join Pro

Comparision Forecast

View Surf forecast
   
Mon 09/22 1:00pm 2ft 4s 13 18 mph 1018.8mb 56f 49f
12:00pm 2.5ft 4s 16 18 mph 1019.4mb 56f 48f
11:00am 2.5ft 4s 16 20 mph 1019.1mb 56f 47f
10:00am 3ft 5s 18 22 mph 1018.9mb 55f 47f
9:00am 3ft 4s 18 22 mph 1018.4mb 55f 47f
8:00am 3.5ft 4s 18 22 mph 1017.9mb 55f 47f
7:00am 3.5ft 4s 20 22 mph 1017.4mb 55f 47f
6:00am 3ft 4s 20 25 mph 1016.7mb 55f 47f
5:00am 3.5ft 4s 20 27 mph 1016.1mb 55f 47f
4:00am 3.5ft 4s 20 27 mph 1015.3mb 55f 48f
3:00am 3.5ft 5s 22 27 mph 1014.8mb 55f 47f
2:00am 3.5ft 4s 20 27 mph 1014.1mb 56f 48f
1:00am 3.5ft 5s 20 27 mph 1013.6mb 56f 48f
12:00am 4ft 5s 25 31 mph 1013.2mb 56f 49f
Sun 09/21 11:00pm 4.5ft 5s 25 29 mph 1012.5mb 56f 49f
10:00pm 4.5ft 5s 25 31 mph 1012.3mb 56f 50f
9:00pm 5ft 5s 25 34 mph 1011.7mb 56f 50f
8:00pm  -   -  27
mph
1010.7mb - 51f
7:00pm 5ft 5s 29 34 mph 1009.4mb 56f 51f
6:00pm 4.5ft 5s 27 31 mph 1008.2mb 56f 51f
5:00pm 4.5ft 5s 27 34 mph 1007.1mb 56f 50f
4:00pm 5ft 5s 27 31 mph 1006mb 56f 51f
3:00pm 5ft 5s 25 31 mph 1004.8mb 57f 51f
2:00pm 5ft 5s 27 34 mph 1004.2mb 57f 51f
1:00pm 6ft 5s 27 31 mph 1003.8mb 57f 51f
12:00pm 5.5ft 5s 31 36 mph 1002.1mb 57f 51f
11:00am  -   -  27
mph
1002.1mb - 52f
10:00am 4.5ft 5s 27 36 mph 1000.8mb 57f 53f
9:00am 4ft 5s 27 31 mph 1001.1mb 57f 53f
8:00am 3ft 4s 29 34 mph 1001mb 57f 54f
7:00am 1ft 4s 27 31 mph 1001.4mb 57f 55f
6:00am 1.3ft 4s 4 7 mph 1002.3mb 57f 58f
5:00am 1.3ft 3s 2 4 mph 1002.6mb 57f 58f
4:00am 1.3ft 4s 4
mph
1002.4mb 57f 58f
3:00am 2ft 4s 4 7 mph 1003mb 57f 58f
2:00am 2.5ft 4s 11
mph
1003.3mb 57f 58f
1:00am 2ft 4s 11 13 mph 1003.5mb 57f 59f
12:00am 2.5ft 4s 16 20 mph 1003.3mb 57f 60f
Sat 09/20 11:00pm 2.5ft 4s 16 18 mph 1003.7mb 57f 60f
10:00pm 2.5ft 4s 16 18 mph 1003.6mb 57f 60f
9:00pm 2.5ft 4s 11 13 mph 1003.8mb 57f 60f
8:00pm 2.5ft 4s 16 20 mph 1003.8mb 57f 62f
7:00pm 3.5ft 5s 9 11 mph 1004.3mb 57f 60f
6:00pm 3.5ft 4s 11 13 mph 1005.3mb 57f 62f
5:00pm 3.5ft 5s 16 18 mph 1005.4mb 57f 62f
4:00pm 4.5ft 5s 18 20 mph 1005.4mb 57f 62f
3:00pm 4.5ft 5s 20 22 mph 1005.5mb 57f 61f
2:00pm 4.5ft 5s 25 29 mph 1006.4mb 57f 61f
1:00pm 4.5ft 5s 18 22 mph 1007.2mb 57f 60f
12:00pm 4.5ft 5s 22 27 mph 1007.8mb 57f 60f
11:00am 4.5ft 5s 22 27 mph 1007.9mb 57f 60f
10:00am 4.5ft 5s 22 27 mph 1009.1mb 57f 59f
9:00am 5ft 5s 20 22 mph 1009.3mb 57f 60f
8:00am 5ft 5s 22 29 mph 1009.3mb 57f 62f
7:00am 5.5ft 5s 22 29 mph 1009.3mb 57f 61f
6:00am 4.5ft 5s 25 29 mph 1009.5mb 57f 61f
5:00am 4.5ft 5s 20 27 mph 1010.7mb 57f 59f
4:00am 3.5ft 5s 20 25 mph 1011.2mb 57f 58f
3:00am 4ft 6s 20 25 mph 1012.1mb 57f 57f
2:00am 4.5ft 6s 20 25 mph 1013.4mb 57f 57f
1:00am 4.5ft 6s 20 27 mph 1014.2mb 57f 57f
12:00am 5ft 6s 22 27 mph 1014.7mb 57f 57f
Fri 09/19 11:00pm 6ft 6s 25 29 mph 1016mb 57f 56f
10:00pm 6ft 6s 27 31 mph 1015.7mb 57f 57f
9:00pm 5ft 6s 27 31 mph 1016.1mb 57f 58f
8:00pm 5ft 6s 22 29 mph 1016.7mb 57f 59f
7:00pm 4.5ft 5s 25 31 mph 1017.1mb 57f 58f
6:00pm 4ft 5s 22 27 mph 1018.2mb 57f 58f
5:00pm 4ft 5s 18 22 mph 1019.4mb 57f 58f
4:00pm 4ft 5s 16 20 mph 1021mb 57f 57f
3:00pm 3.5ft 6s 18 20 mph 1021.9mb 57f 56f
2:00pm 4ft 6s 18 20 mph 1022.9mb 57f 54f
1:00pm 4.5ft 6s 18 20 mph 1023.1mb 57f 53f
12:00pm 4.5ft 6s 18 22 mph 1023.9mb 57f 52f
11:00am 4.5ft 5s 18 20 mph 1025.5mb 57f 51f
10:00am 4.5ft 5s 18 22 mph 1025.5mb 57f 51f
9:00am 3.5ft 5s 20 25 mph 1026.3mb 57f 49f
8:00am 3.5ft 5s 18 22 mph 1026.5mb 57f 49f
7:00am 3.5ft 5s 18 25 mph 1026.7mb 57f 49f
6:00am 3ft 4s 18 22 mph 1026.5mb 57f 49f
5:00am 2.5ft 4s 18 22 mph 1026.2mb 57f 48f
4:00am 2.5ft 4s 18 22 mph 1026mb 58f 48f
3:00am 2.5ft 4s 18 20 mph 1025.9mb 58f 47f
2:00am 2.5ft 4s 18 20 mph 1026.3mb 58f 47f
1:00am 3ft 4s 18 20 mph 1026.1mb 58f 47f
12:00am 3.5ft 4s 18 22 mph 1026mb 58f 47f
Thu 09/18 11:00pm 2.5ft 4s 18 25 mph 1025.6mb 58f 47f
10:00pm 1.3ft 3s 18 22 mph 1025.3mb 58f 48f
9:00pm 0.7ft 2s 9 13 mph 1025.1mb 58f 49f
8:00pm 0.7ft 3s 11 16 mph 1024.7mb 58f 50f